National Weather Service United States Department of Commerce
Click Here for Latest Airport Weather Warnings
 
Latest Huntsville TAF


000
FTUS44 KHUN 181120
TAFHSV
TAF
KHSV 181120Z 1812/1912 15007KT P6SM SKC
FM190000 VRB03KT P6SM SKC=

Latest Muscle Shoals TAF


000
FTUS44 KHUN 181120
TAFMSL
TAF
KMSL 181120Z 1812/1912 15005KT P6SM SKC
FM190000 VRB02KT P6SM SKC=

 

Back to Main Huntsville Weather Forecast Office Page